Time;durP1;ratioP1;P1;durP2;ratioP2;P2;SDS_P1;SDS_P2;PMS_P1;PMS_P2;Temp;Humidity;BMP_temperature;BMP_pressure;BME280_temperature;BME280_humidity;BME280_pressure;Samples;Min_cycle;Max_cycle;Signal;HPM_P1;HPM_P2
2023/12/11 00:00:30;;;;;;;1.80;0.60;;;11.50;46.30;;;;;;5034582;28;20185;-48
2023/12/11 00:02:56;;;;;;;0.90;0.50;;;11.50;46.30;;;;;;5034420;28;20444;-46
2023/12/11 00:05:22;;;;;;;0.90;0.40;;;11.50;46.30;;;;;;5034546;28;20170;-46
2023/12/11 00:07:48;;;;;;;0.90;0.47;;;11.50;46.40;;;;;;5034236;28;20166;-47
2023/12/11 00:10:14;;;;;;;1.03;0.80;;;11.50;46.40;;;;;;5034479;28;20685;-47
2023/12/11 00:12:40;;;;;;;0.90;0.57;;;12.60;47.80;;;;;;5034205;28;20432;-47
2023/12/11 00:15:06;;;;;;;0.90;0.60;;;11.40;46.50;;;;;;5034315;28;20184;-49
2023/12/11 00:17:32;;;;;;;0.85;0.35;;;11.40;47.10;;;;;;5034266;28;20178;-50
2023/12/11 00:19:58;;;;;;;1.00;0.90;;;11.40;47.00;;;;;;5034353;28;20528;-46
2023/12/11 00:22:24;;;;;;;1.00;0.70;;;11.40;47.00;;;;;;5034061;28;20247;-47
2023/12/11 00:24:50;;;;;;;0.90;0.40;;;11.30;47.20;;;;;;5034203;28;20181;-50
2023/12/11 00:27:17;;;;;;;1.67;0.82;;;11.30;47.10;;;;;;5033969;28;20178;-46
2023/12/11 00:29:42;;;;;;;1.10;0.77;;;11.30;47.10;;;;;;5033970;28;20342;-45
2023/12/11 00:32:08;;;;;;;0.90;0.60;;;11.30;47.50;;;;;;5033890;28;20307;-46
2023/12/11 00:34:34;;;;;;;1.10;0.93;;;11.20;47.50;;;;;;5034057;28;20178;-46
2023/12/11 00:37:01;;;;;;;0.93;0.57;;;11.20;47.60;;;;;;5033720;28;20396;-50
2023/12/11 00:39:26;;;;;;;1.20;0.70;;;11.20;47.90;;;;;;5033589;28;20166;-50
2023/12/11 00:41:52;;;;;;;30.40;1.07;;;11.20;47.90;;;;;;5033723;28;20548;-45
2023/12/11 00:44:18;;;;;;;1.13;0.80;;;11.10;48.10;;;;;;5033633;28;20206;-45
2023/12/11 00:46:44;;;;;;;1.43;0.83;;;11.10;48.20;;;;;;5033798;28;20173;-51
2023/12/11 00:49:10;;;;;;;0.97;0.53;;;11.00;48.10;;;;;;5033852;28;20655;-49
2023/12/11 00:51:35;;;;;;;0.90;0.52;;;11.00;48.00;;;;;;5033314;28;20441;-45
2023/12/11 00:54:01;;;;;;;1.10;0.60;;;10.90;48.00;;;;;;5033553;28;20189;-45
2023/12/11 00:56:28;;;;;;;2.17;0.80;;;10.80;48.00;;;;;;5033375;28;20531;-51
2023/12/11 00:58:53;;;;;;;1.40;1.05;;;10.80;47.90;;;;;;5033457;28;20176;-48
2023/12/11 01:01:19;;;;;;;0.97;0.80;;;10.80;48.00;;;;;;5033273;28;20562;-45
2023/12/11 01:03:45;;;;;;;1.40;1.10;;;10.80;48.00;;;;;;5033447;28;20284;-46
2023/12/11 01:06:11;;;;;;;0.80;0.23;;;10.90;47.80;;;;;;5033145;28;20170;-48
2023/12/11 01:08:39;;;;;;;1.00;0.63;;;10.90;47.70;;;;;;5033196;28;20177;-45
2023/12/11 01:11:05;;;;;;;0.80;0.40;;;11.00;47.50;;;;;;5033102;28;20547;-46
2023/12/11 01:13:32;;;;;;;1.20;0.80;;;11.00;47.40;;;;;;5033233;28;20189;-49
2023/12/11 01:15:58;;;;;;;0.90;0.40;;;11.00;47.40;;;;;;5033270;28;20264;-46
2023/12/11 01:18:24;;;;;;;4.93;1.10;;;11.10;47.40;;;;;;5033257;28;20201;-51
2023/12/11 01:20:50;;;;;;;1.00;0.70;;;11.10;47.40;;;;;;5033090;28;20189;-52
2023/12/11 01:23:17;;;;;;;0.90;0.60;;;11.10;47.30;;;;;;5032811;28;20201;-46
2023/12/11 01:25:43;;;;;;;3.33;1.25;;;11.10;47.50;;;;;;5032863;28;20659;-47
2023/12/11 01:28:09;;;;;;;0.90;0.53;;;11.20;47.40;;;;;;5032654;28;20193;-51
2023/12/11 01:30:35;;;;;;;0.95;0.70;;;11.20;47.40;;;;;;5033437;28;20404;-45
2023/12/11 01:33:04;;;;;;;1.00;0.52;;;11.20;47.30;;;;;;5033350;28;20714;-43
2023/12/11 01:35:33;;;;;;;1.00;0.70;;;11.20;47.30;;;;;;5033118;28;20670;-51
2023/12/11 01:37:59;;;;;;;0.90;0.40;;;11.20;47.90;;;;;;5032693;28;20182;-49
2023/12/11 01:40:25;;;;;;;0.80;0.30;;;11.20;48.10;;;;;;5032634;28;20182;-47
2023/12/11 01:42:51;;;;;;;0.90;0.40;;;11.20;48.40;;;;;;5032711;28;20953;-46
2023/12/11 01:45:17;;;;;;;1.20;0.67;;;11.40;48.00;;;;;;5032531;28;20898;-49
2023/12/11 01:47:43;;;;;;;0.87;0.43;;;11.50;47.80;;;;;;5032363;28;20408;-46
2023/12/11 01:50:09;;;;;;;0.80;0.30;;;11.50;47.50;;;;;;5032523;28;20185;-45
2023/12/11 01:52:36;;;;;;;1.10;0.52;;;11.60;47.30;;;;;;5032050;28;20232;-52
2023/12/11 01:55:04;;;;;;;0.90;0.40;;;11.70;47.00;;;;;;5032657;28;20178;-49
2023/12/11 01:57:30;;;;;;;0.80;0.20;;;11.60;46.80;;;;;;5032644;28;20178;-46
2023/12/11 01:59:56;;;;;;;0.88;0.30;;;11.70;47.00;;;;;;5032580;28;20185;-46
2023/12/11 02:02:22;;;;;;;0.80;0.40;;;11.80;46.60;;;;;;5032133;28;20189;-49
2023/12/11 02:04:49;;;;;;;1.10;0.70;;;11.90;46.30;;;;;;5032285;28;20488;-46
2023/12/11 02:07:16;;;;;;;0.90;0.40;;;11.90;46.30;;;;;;5031988;28;20483;-46
2023/12/11 02:09:42;;;;;;;1.63;1.05;;;11.90;46.00;;;;;;5032168;28;20170;-50
2023/12/11 02:12:08;;;;;;;0.80;0.40;;;11.90;46.00;;;;;;5032249;28;20244;-49
2023/12/11 02:14:33;;;;;;;0.80;0.30;;;11.90;46.20;;;;;;5032293;28;20752;-47
2023/12/11 02:16:59;;;;;;;0.90;0.47;;;11.90;45.90;;;;;;5031912;28;20174;-45
2023/12/11 02:19:25;;;;;;;0.80;0.40;;;12.00;46.10;;;;;;5032205;28;20185;-51
2023/12/11 02:21:52;;;;;;;0.90;0.40;;;12.00;45.60;;;;;;5031877;28;20440;-50
2023/12/11 02:24:28;;;;;;;0.90;0.38;;;11.90;45.90;;;;;;5031954;28;20202;-44
2023/12/11 02:26:54;;;;;;;1.00;0.60;;;12.00;45.60;;;;;;5014387;28;20169;-49
2023/12/11 02:29:20;;;;;;;2.55;0.75;;;12.00;45.60;;;;;;5032137;28;20166;-45
2023/12/11 02:31:45;;;;;;;1.30;0.83;;;12.10;45.60;;;;;;5031919;28;20193;-47
2023/12/11 02:34:11;;;;;;;0.97;0.63;;;12.10;45.40;;;;;;5031805;28;20415;-49
2023/12/11 02:36:37;;;;;;;1.13;0.50;;;12.10;45.50;;;;;;5031529;28;20180;-46
2023/12/11 02:39:03;;;;;;;1.33;0.50;;;12.10;45.20;;;;;;5032133;28;20178;-43
2023/12/11 02:41:28;;;;;;;0.80;0.20;;;12.20;45.00;;;;;;5031990;28;20671;-47
2023/12/11 02:43:54;;;;;;;0.80;0.30;;;12.20;44.90;;;;;;5031885;28;20204;-49
2023/12/11 02:46:20;;;;;;;1.00;0.50;;;12.30;44.40;;;;;;5031619;28;20532;-47
2023/12/11 02:48:46;;;;;;;1.30;0.83;;;12.30;45.00;;;;;;5031795;28;20401;-47
2023/12/11 02:51:12;;;;;;;0.90;0.40;;;12.50;44.50;;;;;;5031386;28;20271;-52
2023/12/11 02:53:38;;;;;;;0.90;0.45;;;12.50;44.30;;;;;;5031948;28;20181;-53
2023/12/11 02:56:04;;;;;;;1.40;0.83;;;12.50;44.20;;;;;;5031605;28;20185;-44
2023/12/11 02:58:29;;;;;;;0.90;0.40;;;12.40;44.40;;;;;;5031861;28;20675;-43
2023/12/11 03:00:55;;;;;;;1.00;0.60;;;12.40;44.40;;;;;;5031626;28;20253;-47
2023/12/11 03:03:21;;;;;;;1.73;1.23;;;12.40;44.10;;;;;;5034563;28;20193;-47
2023/12/11 03:05:47;;;;;;;1.10;0.70;;;12.50;43.60;;;;;;5035418;28;20177;-49
2023/12/11 03:08:12;;;;;;;0.90;0.47;;;12.50;44.10;;;;;;5035323;28;20201;-46
2023/12/11 03:10:38;;;;;;;1.40;0.97;;;12.60;44.00;;;;;;5035684;28;20535;-46
2023/12/11 03:13:04;;;;;;;9.73;0.73;;;12.50;43.40;;;;;;5035286;28;20204;-50
2023/12/11 03:15:31;;;;;;;0.90;0.40;;;12.50;44.00;;;;;;5035434;28;20170;-48
2023/12/11 03:17:57;;;;;;;1.00;0.75;;;12.60;43.80;;;;;;5035281;28;20257;-46
2023/12/11 03:20:22;;;;;;;0.87;0.30;;;12.50;43.90;;;;;;5035235;28;20311;-48
2023/12/11 03:22:48;;;;;;;1.00;0.70;;;12.40;43.90;;;;;;5035104;28;20204;-51
2023/12/11 03:25:14;;;;;;;0.80;0.30;;;12.40;44.10;;;;;;5035491;28;20441;-46
2023/12/11 03:27:40;;;;;;;0.90;0.40;;;12.40;44.00;;;;;;5035074;28;20415;-44
2023/12/11 03:30:06;;;;;;;0.90;0.50;;;12.40;44.10;;;;;;5035236;28;20416;-51
2023/12/11 03:32:32;;;;;;;1.00;0.80;;;12.30;44.10;;;;;;5034956;28;20451;-52
2023/12/11 03:34:58;;;;;;;1.50;0.83;;;12.30;44.50;;;;;;5034902;28;20196;-44
2023/12/11 03:37:24;;;;;;;3.30;0.60;;;12.40;44.30;;;;;;5034827;28;20424;-48
2023/12/11 03:39:50;;;;;;;1.00;0.70;;;12.30;44.30;;;;;;5035143;28;20174;-46
2023/12/11 03:42:15;;;;;;;0.90;0.50;;;12.40;44.20;;;;;;5034837;28;20624;-47
2023/12/11 03:44:41;;;;;;;0.80;0.30;;;12.30;44.40;;;;;;5034932;28;20412;-52
2023/12/11 03:47:07;;;;;;;0.90;0.37;;;12.40;44.40;;;;;;5034753;28;20644;-47
2023/12/11 03:49:33;;;;;;;11.20;0.80;;;12.40;44.10;;;;;;5034697;28;20189;-47
2023/12/11 03:51:59;;;;;;;0.80;0.20;;;12.30;44.50;;;;;;5034872;28;20241;-51
2023/12/11 03:54:25;;;;;;;0.90;0.40;;;12.30;44.80;;;;;;5035201;28;20560;-46
2023/12/11 03:56:51;;;;;;;1.17;0.50;;;12.30;44.60;;;;;;5034571;28;20762;-48
2023/12/11 03:59:16;;;;;;;0.90;0.33;;;12.30;45.00;;;;;;5034737;28;20181;-49
2023/12/11 04:01:42;;;;;;;1.13;0.77;;;12.20;44.70;;;;;;5034420;28;20268;-48
2023/12/11 04:04:08;;;;;;;1.60;1.33;;;12.30;45.00;;;;;;5034412;28;20190;-47
2023/12/11 04:06:33;;;;;;;0.90;0.47;;;12.30;44.80;;;;;;5034558;28;20170;-46
2023/12/11 04:08:59;;;;;;;1.00;0.70;;;12.30;44.90;;;;;;5034433;28;20636;-51
2023/12/11 04:11:25;;;;;;;0.90;0.43;;;12.30;44.50;;;;;;5034446;28;20203;-47
2023/12/11 04:13:51;;;;;;;0.90;0.40;;;12.30;44.50;;;;;;5033760;28;20644;-47
2023/12/11 04:16:16;;;;;;;1.10;0.60;;;12.30;44.40;;;;;;5034192;28;20403;-49
2023/12/11 04:18:42;;;;;;;0.90;0.40;;;12.20;44.60;;;;;;5016561;28;20170;-45
2023/12/11 04:21:08;;;;;;;0.80;0.30;;;12.10;44.90;;;;;;5034113;28;20236;-46
2023/12/11 04:23:34;;;;;;;0.90;0.30;;;12.10;45.20;;;;;;5034073;28;20671;-48
2023/12/11 04:26:01;;;;;;;0.93;0.50;;;12.20;44.70;;;;;;5016196;28;20177;-48
2023/12/11 04:28:27;;;;;;;0.90;0.40;;;12.20;44.50;;;;;;5034039;28;20540;-45
2023/12/11 04:30:52;;;;;;;2.17;1.07;;;12.30;44.60;;;;;;5033896;28;20232;-46
2023/12/11 04:33:18;;;;;;;1.00;0.70;;;12.20;44.70;;;;;;5033729;28;20413;-51
2023/12/11 04:35:44;;;;;;;5.23;0.60;;;12.40;44.60;;;;;;5033876;28;20174;-46
2023/12/11 04:38:10;;;;;;;1.02;0.70;;;12.40;44.50;;;;;;5034144;28;20412;-48
2023/12/11 04:40:36;;;;;;;0.90;0.40;;;12.40;44.00;;;;;;5033990;28;20235;-53
2023/12/11 04:43:02;;;;;;;2.60;1.10;;;12.40;44.40;;;;;;5033647;28;20590;-54
2023/12/11 04:45:28;;;;;;;0.90;0.50;;;12.40;44.10;;;;;;5033846;28;20174;-48
2023/12/11 04:47:54;;;;;;;0.97;0.70;;;12.40;44.00;;;;;;5033595;28;20779;-47
2023/12/11 04:50:19;;;;;;;1.00;0.53;;;12.40;43.90;;;;;;5033763;28;20405;-52
2023/12/11 04:52:45;;;;;;;1.23;0.70;;;12.40;44.40;;;;;;5033484;28;20213;-52
2023/12/11 04:55:11;;;;;;;1.63;1.07;;;12.40;44.30;;;;;;5033794;28;20173;-48
2023/12/11 04:57:37;;;;;;;0.87;0.37;;;12.30;44.40;;;;;;5033590;28;20426;-50
2023/12/11 05:00:04;;;;;;;1.10;0.80;;;12.40;44.40;;;;;;5033569;28;20174;-52
2023/12/11 05:02:30;;;;;;;0.90;0.32;;;12.40;44.10;;;;;;5033154;28;20599;-47
2023/12/11 05:04:56;;;;;;;0.90;0.40;;;12.40;44.20;;;;;;5033686;28;20248;-46
2023/12/11 05:07:22;;;;;;;0.90;0.40;;;12.40;44.10;;;;;;5033220;28;20173;-52
2023/12/11 05:09:48;;;;;;;1.50;0.60;;;12.40;44.30;;;;;;5033239;28;20181;-52
2023/12/11 05:12:14;;;;;;;1.50;0.80;;;12.50;44.20;;;;;;5033194;28;20485;-49
2023/12/11 05:14:40;;;;;;;1.00;0.53;;;12.50;44.10;;;;;;5033129;28;20408;-46
2023/12/11 05:17:05;;;;;;;1.73;0.60;;;12.50;44.40;;;;;;5033030;28;20174;-52
2023/12/11 05:19:31;;;;;;;0.90;0.47;;;12.50;44.50;;;;;;5033330;28;20497;-49
2023/12/11 05:21:58;;;;;;;1.30;0.50;;;12.60;43.80;;;;;;5033373;28;20202;-48
2023/12/11 05:24:24;;;;;;;1.75;1.02;;;12.70;43.60;;;;;;5033102;28;20216;-52
2023/12/11 05:26:50;;;;;;;1.00;0.60;;;12.50;43.50;;;;;;5031854;28;20648;-50
2023/12/11 05:29:16;;;;;;;0.93;0.47;;;12.70;43.50;;;;;;5032850;28;20651;-47
2023/12/11 05:31:42;;;;;;;1.13;0.80;;;12.80;43.10;;;;;;5032572;28;20230;-52
2023/12/11 05:34:08;;;;;;;0.93;0.47;;;12.80;42.60;;;;;;5033112;28;20528;-48
2023/12/11 05:36:34;;;;;;;4.30;0.83;;;12.70;43.00;;;;;;5032700;28;20405;-51
2023/12/11 05:39:00;;;;;;;1.48;1.30;;;12.70;42.70;;;;;;5032875;28;20193;-51
2023/12/11 05:41:26;;;;;;;2.78;0.80;;;12.80;42.00;;;;;;5032552;28;20260;-48
2023/12/11 05:43:51;;;;;;;1.40;0.90;;;12.70;42.50;;;;;;5032493;28;20670;-50
2023/12/11 05:46:17;;;;;;;1.23;0.60;;;12.80;41.90;;;;;;5032459;28;20437;-51
2023/12/11 05:48:43;;;;;;;1.07;0.53;;;12.70;42.60;;;;;;5032719;28;20170;-49
2023/12/11 05:51:09;;;;;;;1.00;0.70;;;12.70;42.50;;;;;;5032248;28;20611;-50
2023/12/11 05:53:35;;;;;;;0.90;0.40;;;12.80;42.00;;;;;;5032579;28;20178;-47
2023/12/11 05:56:00;;;;;;;0.80;0.30;;;12.80;42.00;;;;;;5032282;28;20170;-51
2023/12/11 05:58:26;;;;;;;1.20;0.80;;;12.80;41.90;;;;;;5032444;28;20202;-51
2023/12/11 06:00:52;;;;;;;1.10;0.80;;;12.80;41.70;;;;;;5032215;28;20201;-51
2023/12/11 06:03:17;;;;;;;1.00;0.40;;;12.80;41.60;;;;;;5032232;28;20202;-53
2023/12/11 06:05:43;;;;;;;1.70;0.47;;;12.90;41.80;;;;;;5032282;28;20232;-47
2023/12/11 06:08:09;;;;;;;4.20;1.17;;;12.90;41.60;;;;;;5032026;28;20181;-50
2023/12/11 06:10:35;;;;;;;1.20;0.80;;;12.90;41.40;;;;;;5032206;28;20268;-51
2023/12/11 06:13:00;;;;;;;0.90;0.37;;;12.90;41.00;;;;;;5032618;28;20194;-47
2023/12/11 06:15:26;;;;;;;0.93;0.50;;;12.90;40.90;;;;;;5032874;28;20664;-48
2023/12/11 06:17:52;;;;;;;5.13;1.58;;;12.80;41.10;;;;;;5032823;28;20182;-53
2023/12/11 06:20:18;;;;;;;5.97;0.87;;;12.80;40.60;;;;;;5032033;28;20640;-52
2023/12/11 06:22:47;;;;;;;1.00;0.50;;;12.70;41.10;;;;;;5031839;28;20206;-48
2023/12/11 06:25:13;;;;;;;0.95;0.65;;;12.70;41.60;;;;;;5014590;28;20772;-48
2023/12/11 06:27:39;;;;;;;1.00;0.80;;;12.70;41.60;;;;;;5031823;28;20690;-53
2023/12/11 06:30:07;;;;;;;1.77;0.50;;;12.70;41.40;;;;;;5031985;28;20459;-49
2023/12/11 06:32:33;;;;;;;1.13;0.60;;;12.80;41.20;;;;;;5031870;28;20428;-50
2023/12/11 06:34:59;;;;;;;0.95;0.60;;;12.70;41.40;;;;;;5031969;28;20174;-52
2023/12/11 06:37:25;;;;;;;1.00;0.50;;;12.70;41.50;;;;;;5034871;28;20180;-49
2023/12/11 06:39:50;;;;;;;1.10;0.70;;;12.60;41.40;;;;;;5038533;28;20297;-56
2023/12/11 06:42:16;;;;;;;0.90;0.60;;;12.60;41.60;;;;;;5038352;28;20288;-54
2023/12/11 06:44:42;;;;;;;2.07;1.10;;;12.60;41.60;;;;;;5038319;28;20259;-47
2023/12/11 06:47:09;;;;;;;1.10;0.67;;;12.60;41.70;;;;;;5038458;28;20409;-50
2023/12/11 06:49:36;;;;;;;0.95;0.50;;;12.60;41.70;;;;;;5038631;28;20629;-52
2023/12/11 06:52:03;;;;;;;1.80;1.05;;;12.60;41.70;;;;;;5038152;28;20631;-47
2023/12/11 06:54:28;;;;;;;1.25;0.70;;;12.70;41.70;;;;;;5038465;28;20209;-54
2023/12/11 06:56:54;;;;;;;1.70;1.03;;;12.60;42.10;;;;;;5038320;28;20180;-55
2023/12/11 06:59:21;;;;;;;0.88;0.40;;;12.60;41.50;;;;;;5038388;28;20170;-48
2023/12/11 07:01:47;;;;;;;17.23;1.90;;;12.70;41.50;;;;;;5038175;28;20694;-49
2023/12/11 07:04:13;;;;;;;0.90;0.50;;;12.70;41.70;;;;;;5038258;28;20198;-53
2023/12/11 07:06:39;;;;;;;1.10;0.85;;;12.70;41.40;;;;;;5038111;28;20639;-50
2023/12/11 07:09:05;;;;;;;1.63;0.70;;;12.70;41.40;;;;;;5038353;28;20204;-49
2023/12/11 07:11:31;;;;;;;1.87;0.70;;;12.70;41.40;;;;;;5038214;28;20782;-50
2023/12/11 07:13:57;;;;;;;0.90;0.40;;;12.70;41.50;;;;;;5038145;28;20404;-52
2023/12/11 07:16:23;;;;;;;1.23;1.00;;;12.80;41.30;;;;;;5038049;28;20651;-51
2023/12/11 07:18:49;;;;;;;0.90;0.50;;;12.80;41.50;;;;;;5038218;28;20182;-49
2023/12/11 07:21:14;;;;;;;0.93;0.50;;;12.90;41.40;;;;;;5038416;28;20280;-50
2023/12/11 07:23:40;;;;;;;0.80;0.30;;;12.90;41.40;;;;;;5038209;28;20537;-55
2023/12/11 07:26:09;;;;;;;2.70;1.17;;;12.90;42.10;;;;;;5038038;28;20210;-47
2023/12/11 07:28:36;;;;;;;1.00;0.50;;;13.00;41.00;;;;;;5037949;28;20178;-51
2023/12/11 07:31:03;;;;;;;0.90;0.40;;;13.00;40.90;;;;;;5038013;28;20184;-52
2023/12/11 07:33:29;;;;;;;2.95;0.80;;;13.00;41.30;;;;;;5038009;28;20571;-51
2023/12/11 07:35:55;;;;;;;2.27;1.03;;;13.10;41.40;;;;;;5037964;28;20234;-47
2023/12/11 07:38:21;;;;;;;1.50;0.90;;;13.10;41.20;;;;;;5037996;28;20186;-51
2023/12/11 07:40:47;;;;;;;31.67;1.03;;;13.10;41.10;;;;;;5037831;28;20648;-54
2023/12/11 07:43:13;;;;;;;1.00;0.70;;;13.10;40.60;;;;;;5037795;28;20448;-51
2023/12/11 07:45:39;;;;;;;1.33;0.93;;;13.10;41.10;;;;;;5037904;28;20208;-52
2023/12/11 07:48:06;;;;;;;0.90;0.60;;;13.10;40.80;;;;;;5037134;28;20197;-49
2023/12/11 07:50:32;;;;;;;1.08;0.68;;;13.20;41.30;;;;;;5034216;28;20206;-55
2023/12/11 07:52:58;;;;;;;0.90;0.38;;;13.20;41.30;;;;;;5034504;28;20219;-54
2023/12/11 07:55:23;;;;;;;1.00;0.60;;;13.20;41.00;;;;;;5034655;28;20186;-47
2023/12/11 07:57:49;;;;;;;1.00;0.70;;;13.30;40.70;;;;;;5034460;28;20170;-50
2023/12/11 08:00:15;;;;;;;1.10;1.00;;;13.30;41.00;;;;;;5034827;28;20259;-53
2023/12/11 08:02:42;;;;;;;0.93;0.50;;;13.40;40.40;;;;;;5034423;28;20313;-51
2023/12/11 08:05:09;;;;;;;7.23;1.00;;;13.40;40.50;;;;;;5034512;28;20711;-49
2023/12/11 08:07:37;;;;;;;1.50;1.23;;;13.40;40.40;;;;;;5034443;28;20178;-50
2023/12/11 08:10:04;;;;;;;8.57;1.23;;;13.60;40.40;;;;;;5034460;28;20178;-55
2023/12/11 08:12:31;;;;;;;0.98;0.73;;;13.60;40.40;;;;;;5034442;28;20190;-50
2023/12/11 08:14:57;;;;;;;1.55;0.73;;;13.60;39.70;;;;;;5034566;28;20189;-46
2023/12/11 08:17:24;;;;;;;0.93;0.50;;;13.60;39.80;;;;;;5034134;28;20181;-55
2023/12/11 08:19:50;;;;;;;2.10;0.60;;;13.60;39.90;;;;;;5034420;28;20205;-52
2023/12/11 08:22:16;;;;;;;2.38;0.68;;;13.70;40.00;;;;;;5034192;28;20194;-48
2023/12/11 08:24:43;;;;;;;1.10;0.70;;;13.70;39.70;;;;;;5034195;28;20717;-52
2023/12/11 08:27:09;;;;;;;1.98;1.05;;;13.70;39.60;;;;;;5034240;28;20170;-48
2023/12/11 08:29:35;;;;;;;0.90;0.50;;;13.70;40.10;;;;;;5034509;28;20177;-53
2023/12/11 08:32:04;;;;;;;1.00;0.70;;;13.70;39.50;;;;;;5034421;28;20425;-49
2023/12/11 08:34:30;;;;;;;1.85;0.85;;;13.70;39.80;;;;;;5034626;28;20236;-55
2023/12/11 08:36:56;;;;;;;0.90;0.43;;;13.80;39.90;;;;;;5034362;28;20182;-55
2023/12/11 08:39:22;;;;;;;1.40;0.70;;;14.00;39.50;;;;;;5034465;28;20813;-49
2023/12/11 08:41:49;;;;;;;0.90;0.50;;;14.10;39.50;;;;;;5034465;28;20435;-49
2023/12/11 08:44:15;;;;;;;1.00;0.80;;;14.20;39.20;;;;;;5034308;28;20456;-55
2023/12/11 08:46:41;;;;;;;0.90;0.30;;;14.50;38.60;;;;;;5034350;28;20177;-53
2023/12/11 08:49:08;;;;;;;1.00;0.50;;;14.80;38.80;;;;;;5034477;28;20170;-49
2023/12/11 08:51:34;;;;;;;0.90;0.40;;;15.00;38.30;;;;;;5034088;28;20214;-55
2023/12/11 08:54:00;;;;;;;1.07;0.60;;;15.00;37.70;;;;;;5034156;28;20186;-54
2023/12/11 08:56:25;;;;;;;1.00;0.60;;;15.10;37.70;;;;;;5033987;28;20417;-48
2023/12/11 08:58:51;;;;;;;1.00;0.70;;;15.40;37.50;;;;;;5034325;28;20495;-49
2023/12/11 09:01:18;;;;;;;1.00;0.53;;;15.60;37.30;;;;;;5034031;28;20189;-52
2023/12/11 09:03:44;;;;;;;1.00;0.60;;;15.90;36.60;;;;;;5034814;28;20514;-50
2023/12/11 09:06:13;;;;;;;1.00;0.60;;;16.00;36.50;;;;;;5034394;28;20180;-49
2023/12/11 09:08:39;;;;;;;2.50;1.00;;;16.20;37.20;;;;;;5034696;28;20174;-53
2023/12/11 09:11:05;;;;;;;1.03;0.50;;;16.30;36.20;;;;;;5034469;28;20173;-55
2023/12/11 09:13:30;;;;;;;1.00;0.75;;;16.30;35.80;;;;;;5034510;28;20813;-48
2023/12/11 09:15:56;;;;;;;4.30;0.87;;;16.40;36.60;;;;;;5034752;28;20231;-48
2023/12/11 09:18:22;;;;;;;1.00;0.50;;;16.60;36.90;;;;;;5035168;28;20182;-54
2023/12/11 09:20:48;;;;;;;1.00;0.50;;;16.70;35.40;;;;;;5035460;28;20312;-53
2023/12/11 09:23:14;;;;;;;1.00;0.50;;;16.70;35.40;;;;;;5035072;28;20281;-51
2023/12/11 09:25:41;;;;;;;1.60;0.60;;;16.70;34.90;;;;;;5035490;28;20412;-55
2023/12/11 09:28:06;;;;;;;1.80;1.10;;;16.70;34.50;;;;;;5035432;28;20567;-53
2023/12/11 09:30:32;;;;;;;1.20;0.70;;;16.60;34.00;;;;;;5035058;28;20176;-52
2023/12/11 09:32:58;;;;;;;1.93;0.87;;;16.70;34.20;;;;;;5034865;28;20222;-46
2023/12/11 09:35:24;;;;;;;1.00;0.50;;;16.60;34.10;;;;;;5034555;28;20413;-51
2023/12/11 09:37:50;;;;;;;1.63;1.03;;;16.70;34.90;;;;;;5034395;28;20272;-53
2023/12/11 09:40:16;;;;;;;1.40;1.10;;;17.20;33.60;;;;;;5034416;28;20415;-49
2023/12/11 09:42:43;;;;;;;2.43;1.70;;;17.20;32.30;;;;;;5034142;28;20197;-48
2023/12/11 09:45:11;;;;;;;2.35;1.10;;;17.40;32.70;;;;;;5034225;28;20401;-51
2023/12/11 09:47:46;;;;;;;1.38;0.88;;;17.50;31.70;;;;;;5016504;28;20205;-51
2023/12/11 09:50:16;;;;;;;2.00;1.80;;;17.50;32.60;;;;;;5034016;28;20170;-49
2023/12/11 09:52:42;;;;;;;2.17;1.98;;;17.40;32.00;;;;;;5033593;28;20259;-49
2023/12/11 09:55:09;;;;;;;2.60;0.90;;;17.30;31.70;;;;;;5033562;28;20170;-55
2023/12/11 09:57:40;;;;;;;1.00;0.55;;;17.20;32.70;;;;;;5033610;28;20640;-55
2023/12/11 10:00:09;;;;;;;1.10;0.73;;;17.00;32.10;;;;;;5033921;28;20604;-47
2023/12/11 10:02:37;;;;;;;1.00;0.70;;;16.70;32.60;;;;;;5033341;28;20194;-49
2023/12/11 10:05:08;;;;;;;1.40;1.02;;;16.50;33.60;;;;;;5033661;28;20174;-53
2023/12/11 10:07:38;;;;;;;1.00;0.60;;;16.30;32.90;;;;;;5033101;28;20174;-50
2023/12/11 10:10:38;;;;;;;1.42;0.60;;;16.10;33.90;;;;;;5033464;28;20178;-48
2023/12/11 10:13:04;;;;;;;1.20;0.85;;;16.00;34.10;;;;;;5000247;28;20288;-54
2023/12/11 10:15:32;;;;;;;5.00;1.33;;;15.80;33.60;;;;;;5033481;28;20261;-50
2023/12/11 10:18:12;;;;;;;1.10;0.82;;;15.90;34.60;;;;;;5032891;28;20409;-54
2023/12/11 10:20:42;;;;;;;1.00;0.60;;;16.10;34.00;;;;;;5015254;28;20651;-49
2023/12/11 10:23:16;;;;;;;2.20;1.10;;;16.20;34.40;;;;;;5032903;28;20206;-52
2023/12/11 10:25:47;;;;;;;1.63;1.15;;;16.50;34.50;;;;;;5032888;28;20157;-49
2023/12/11 10:28:16;;;;;;;1.40;0.57;;;16.60;33.90;;;;;;5032798;28;20173;-49
2023/12/11 10:30:55;;;;;;;2.47;1.00;;;16.60;34.50;;;;;;5033008;28;20170;-55
2023/12/11 10:33:23;;;;;;;2.00;0.80;;;16.50;34.60;;;;;;5033032;28;20264;-50
2023/12/11 10:35:49;;;;;;;1.23;0.60;;;16.40;33.90;;;;;;5033053;28;20178;-48
2023/12/11 10:38:25;;;;;;;1.00;0.52;;;16.20;34.30;;;;;;5065451;22;20245;-54
2023/12/11 10:40:52;;;;;;;1.40;0.73;;;16.00;35.00;;;;;;5059903;28;20716;-50
2023/12/11 10:43:19;;;;;;;1.00;0.60;;;15.90;35.30;;;;;;5051535;28;20201;-55
2023/12/11 10:45:45;;;;;;;1.00;0.60;;;16.00;34.80;;;;;;5051621;28;20180;-57
2023/12/11 10:48:11;;;;;;;1.00;0.60;;;16.30;34.50;;;;;;5051553;28;20284;-50
2023/12/11 10:50:37;;;;;;;1.00;0.50;;;16.80;34.50;;;;;;5051505;28;20212;-51
2023/12/11 10:53:03;;;;;;;1.30;0.83;;;17.00;32.70;;;;;;5064189;28;20414;-54
2023/12/11 10:55:33;;;;;;;1.20;0.60;;;17.20;32.70;;;;;;5055298;28;20416;-51
2023/12/11 10:58:03;;;;;;;1.27;0.98;;;17.40;32.50;;;;;;5051267;28;20201;-48
2023/12/11 11:00:33;;;;;;;5.05;0.80;;;17.50;31.70;;;;;;5051604;28;20265;-56
2023/12/11 11:03:00;;;;;;;1.00;0.63;;;17.60;31.50;;;;;;5043431;28;20196;-50
2023/12/11 11:05:28;;;;;;;1.85;0.90;;;17.80;31.80;;;;;;5051498;28;20179;-56
2023/12/11 11:08:19;;;;;;;1.40;0.70;;;17.90;32.40;;;;;;5054280;28;20688;-56
2023/12/11 11:11:08;;;;;;;1.10;0.75;;;18.00;32.40;;;;;;5071384;28;20817;-57
2023/12/11 11:13:47;;;;;;;1.55;0.75;;;18.10;31.90;;;;;;5071160;28;20183;-57
2023/12/11 11:16:13;;;;;;;2.00;0.88;;;18.00;31.40;;;;;;5071192;28;20237;-51
2023/12/11 11:19:15;;;;;;;1.10;0.60;;;17.90;31.70;;;;;;5071254;28;20200;-48
2023/12/11 11:21:42;;;;;;;1.20;1.10;;;17.90;31.60;;;;;;5028916;28;20186;-56
2023/12/11 11:24:26;;;;;;;1.00;0.50;;;17.70;31.70;;;;;;5029764;28;20209;-52
2023/12/11 11:26:51;;;;;;;1.30;0.88;;;17.90;31.90;;;;;;5032583;28;20202;-49
2023/12/11 11:29:40;;;;;;;2.03;1.43;;;17.90;32.40;;;;;;5032666;28;20229;-55
2023/12/11 11:32:06;;;;;;;2.47;0.90;;;18.00;32.20;;;;;;5032679;28;20669;-49
2023/12/11 11:34:40;;;;;;;3.75;0.82;;;18.10;32.20;;;;;;5032648;28;20190;-54
2023/12/11 11:37:20;;;;;;;1.33;0.88;;;18.40;32.60;;;;;;5032203;28;20178;-58
2023/12/11 11:40:03;;;;;;;1.00;0.50;;;18.50;31.60;;;;;;5032408;28;20693;-50
2023/12/11 11:42:32;;;;;;;4.80;1.30;;;18.60;31.40;;;;;;5032480;28;20201;-58
2023/12/11 11:44:59;;;;;;;1.35;1.05;;;18.70;31.30;;;;;;5032512;28;20182;-50
2023/12/11 11:47:29;;;;;;;1.10;0.60;;;18.90;30.20;;;;;;5024942;28;20284;-57
2023/12/11 11:50:06;;;;;;;1.48;0.90;;;18.60;30.60;;;;;;5012549;28;20187;-56
2023/12/11 11:52:32;;;;;;;1.10;0.70;;;18.10;32.10;;;;;;5012385;28;20178;-54
2023/12/11 11:55:26;;;;;;;1.00;0.60;;;17.90;32.40;;;;;;5021894;28;20713;-56
2023/12/11 11:57:52;;;;;;;1.10;0.60;;;17.70;32.50;;;;;;5054274;28;20247;-59
2023/12/11 12:00:26;;;;;;;1.55;0.50;;;17.40;33.40;;;;;;5054475;28;20174;-50
2023/12/11 12:03:05;;;;;;;0.95;0.40;;;17.40;33.20;;;;;;5054288;28;20173;-56
2023/12/11 12:05:31;;;;;;;6.82;1.48;;;17.40;33.80;;;;;;5054520;28;20220;-50
2023/12/11 12:07:57;;;;;;;1.10;0.82;;;17.30;33.60;;;;;;5054325;28;20205;-57
2023/12/11 12:10:23;;;;;;;1.57;0.50;;;17.10;33.80;;;;;;5054404;28;20554;-56
2023/12/11 12:12:59;;;;;;;0.98;0.40;;;16.80;34.30;;;;;;5054296;28;20472;-50
2023/12/11 12:15:26;;;;;;;12.65;1.27;;;16.70;34.90;;;;;;5054512;28;20180;-51
2023/12/11 12:17:52;;;;;;;1.35;0.68;;;16.60;34.80;;;;;;5054068;28;20272;-56
2023/12/11 12:20:19;;;;;;;0.90;0.30;;;16.50;35.20;;;;;;5054330;28;20256;-51
2023/12/11 12:23:06;;;;;;;1.02;0.55;;;16.50;35.20;;;;;;5053978;28;20534;-57
2023/12/11 12:25:32;;;;;;;1.00;0.30;;;16.60;35.00;;;;;;5054057;28;20168;-57
2023/12/11 12:28:06;;;;;;;1.52;1.30;;;16.40;35.50;;;;;;5053844;28;20197;-55
2023/12/11 12:30:33;;;;;;;0.90;0.30;;;16.40;35.40;;;;;;5054211;28;20177;-51
2023/12/11 12:33:00;;;;;;;0.90;0.40;;;16.10;36.00;;;;;;5053976;28;20539;-52
2023/12/11 12:35:27;;;;;;;1.90;0.95;;;16.30;35.80;;;;;;5053473;28;20170;-53
2023/12/11 12:37:55;;;;;;;2.00;0.93;;;16.10;36.20;;;;;;5053500;28;20768;-51
2023/12/11 12:40:21;;;;;;;1.00;0.65;;;16.10;36.80;;;;;;5053773;28;20185;-51
2023/12/11 12:42:47;;;;;;;1.00;0.40;;;16.10;37.00;;;;;;5053758;28;20172;-52
2023/12/11 12:45:28;;;;;;;1.58;0.75;;;16.30;37.20;;;;;;5053778;28;20922;-53